sensor_id;sensor_type;location;lat;lon;timestamp;P1;durP1;ratioP1;P2;durP2;ratioP2
21876;SDS011;11103;43.788;23.710;2022-12-10T00:01:46;58.13;;;22.40;;
21876;SDS011;11103;43.788;23.710;2022-12-10T00:04:13;56.60;;;22.63;;
21876;SDS011;11103;43.788;23.710;2022-12-10T00:06:39;52.67;;;22.50;;
21876;SDS011;11103;43.788;23.710;2022-12-10T00:09:07;47.67;;;21.23;;
21876;SDS011;11103;43.788;23.710;2022-12-10T00:11:36;61.73;;;23.93;;
21876;SDS011;11103;43.788;23.710;2022-12-10T00:14:03;61.03;;;22.47;;
21876;SDS011;11103;43.788;23.710;2022-12-10T00:16:31;55.00;;;21.70;;
21876;SDS011;11103;43.788;23.710;2022-12-10T00:18:58;64.57;;;22.90;;
21876;SDS011;11103;43.788;23.710;2022-12-10T00:21:26;59.17;;;22.83;;
21876;SDS011;11103;43.788;23.710;2022-12-10T00:23:53;53.77;;;20.33;;
21876;SDS011;11103;43.788;23.710;2022-12-10T00:26:20;58.23;;;22.07;;
21876;SDS011;11103;43.788;23.710;2022-12-10T00:28:48;57.90;;;21.53;;
21876;SDS011;11103;43.788;23.710;2022-12-10T00:31:16;60.73;;;23.03;;
21876;SDS011;11103;43.788;23.710;2022-12-10T00:33:43;62.37;;;25.40;;
21876;SDS011;11103;43.788;23.710;2022-12-10T00:36:11;51.17;;;21.53;;
21876;SDS011;11103;43.788;23.710;2022-12-10T00:38:38;52.63;;;19.73;;
21876;SDS011;11103;43.788;23.710;2022-12-10T00:41:04;44.70;;;19.30;;
21876;SDS011;11103;43.788;23.710;2022-12-10T00:43:30;45.40;;;19.53;;
21876;SDS011;11103;43.788;23.710;2022-12-10T00:45:55;41.37;;;18.00;;
21876;SDS011;11103;43.788;23.710;2022-12-10T00:48:22;41.70;;;18.67;;
21876;SDS011;11103;43.788;23.710;2022-12-10T00:51:01;40.53;;;18.97;;
21876;SDS011;11103;43.788;23.710;2022-12-10T00:53:28;41.97;;;17.10;;
21876;SDS011;11103;43.788;23.710;2022-12-10T00:55:56;40.07;;;18.30;;
21876;SDS011;11103;43.788;23.710;2022-12-10T00:58:22;41.17;;;18.53;;
21876;SDS011;11103;43.788;23.710;2022-12-10T01:00:49;36.53;;;17.50;;
21876;SDS011;11103;43.788;23.710;2022-12-10T01:03:14;44.13;;;18.77;;
21876;SDS011;11103;43.788;23.710;2022-12-10T01:05:40;45.53;;;18.33;;
21876;SDS011;11103;43.788;23.710;2022-12-10T01:08:06;45.37;;;19.53;;
21876;SDS011;11103;43.788;23.710;2022-12-10T01:10:32;43.63;;;18.73;;
21876;SDS011;11103;43.788;23.710;2022-12-10T01:12:58;49.33;;;18.47;;
21876;SDS011;11103;43.788;23.710;2022-12-10T01:15:23;44.50;;;17.17;;
21876;SDS011;11103;43.788;23.710;2022-12-10T01:17:49;49.57;;;20.17;;
21876;SDS011;11103;43.788;23.710;2022-12-10T01:20:14;44.20;;;18.53;;
21876;SDS011;11103;43.788;23.710;2022-12-10T01:22:39;48.77;;;19.67;;
21876;SDS011;11103;43.788;23.710;2022-12-10T01:25:05;47.70;;;18.07;;
21876;SDS011;11103;43.788;23.710;2022-12-10T01:27:31;44.00;;;17.73;;
21876;SDS011;11103;43.788;23.710;2022-12-10T01:29:57;43.33;;;18.60;;
21876;SDS011;11103;43.788;23.710;2022-12-10T01:32:22;70.43;;;28.20;;
21876;SDS011;11103;43.788;23.710;2022-12-10T01:34:48;49.83;;;20.67;;
21876;SDS011;11103;43.788;23.710;2022-12-10T01:37:13;56.00;;;22.60;;
21876;SDS011;11103;43.788;23.710;2022-12-10T01:39:39;54.50;;;20.63;;
21876;SDS011;11103;43.788;23.710;2022-12-10T01:42:04;63.00;;;22.10;;
21876;SDS011;11103;43.788;23.710;2022-12-10T01:46:56;49.03;;;20.77;;
21876;SDS011;11103;43.788;23.710;2022-12-10T01:49:35;57.43;;;21.63;;
21876;SDS011;11103;43.788;23.710;2022-12-10T01:52:03;71.47;;;20.73;;
21876;SDS011;11103;43.788;23.710;2022-12-10T01:54:31;50.90;;;17.43;;
21876;SDS011;11103;43.788;23.710;2022-12-10T01:57:00;47.33;;;18.40;;
21876;SDS011;11103;43.788;23.710;2022-12-10T01:59:28;50.90;;;17.20;;
21876;SDS011;11103;43.788;23.710;2022-12-10T02:07:21;53.73;;;19.50;;
21876;SDS011;11103;43.788;23.710;2022-12-10T02:15:12;51.13;;;19.73;;
21876;SDS011;11103;43.788;23.710;2022-12-10T02:17:51;60.57;;;21.00;;
21876;SDS011;11103;43.788;23.710;2022-12-10T02:20:30;58.43;;;22.47;;
21876;SDS011;11103;43.788;23.710;2022-12-10T02:23:03;76.03;;;23.07;;
21876;SDS011;11103;43.788;23.710;2022-12-10T02:25:48;59.03;;;23.57;;
21876;SDS011;11103;43.788;23.710;2022-12-10T02:30:43;56.00;;;23.10;;
21876;SDS011;11103;43.788;23.710;2022-12-10T02:33:10;64.93;;;24.57;;
21876;SDS011;11103;43.788;23.710;2022-12-10T02:35:38;60.17;;;22.40;;
21876;SDS011;11103;43.788;23.710;2022-12-10T02:38:16;59.87;;;22.10;;
21876;SDS011;11103;43.788;23.710;2022-12-10T02:40:48;71.70;;;23.67;;
21876;SDS011;11103;43.788;23.710;2022-12-10T02:43:17;49.07;;;20.30;;
21876;SDS011;11103;43.788;23.710;2022-12-10T02:45:43;49.93;;;20.60;;
21876;SDS011;11103;43.788;23.710;2022-12-10T02:48:09;47.67;;;19.60;;
21876;SDS011;11103;43.788;23.710;2022-12-10T02:50:37;49.67;;;19.67;;
21876;SDS011;11103;43.788;23.710;2022-12-10T02:53:02;59.90;;;19.00;;
21876;SDS011;11103;43.788;23.710;2022-12-10T02:55:29;50.83;;;19.70;;
21876;SDS011;11103;43.788;23.710;2022-12-10T03:04:46;46.87;;;19.93;;
21876;SDS011;11103;43.788;23.710;2022-12-10T03:07:10;48.47;;;18.43;;
21876;SDS011;11103;43.788;23.710;2022-12-10T03:09:46;45.20;;;17.33;;
21876;SDS011;11103;43.788;23.710;2022-12-10T03:12:19;38.17;;;16.90;;
21876;SDS011;11103;43.788;23.710;2022-12-10T03:14:59;52.33;;;19.27;;
21876;SDS011;11103;43.788;23.710;2022-12-10T03:17:28;48.80;;;18.40;;
21876;SDS011;11103;43.788;23.710;2022-12-10T03:19:57;44.80;;;16.90;;
21876;SDS011;11103;43.788;23.710;2022-12-10T03:22:25;51.90;;;17.83;;
21876;SDS011;11103;43.788;23.710;2022-12-10T03:24:51;57.63;;;18.33;;
21876;SDS011;11103;43.788;23.710;2022-12-10T03:27:19;51.37;;;19.53;;
21876;SDS011;11103;43.788;23.710;2022-12-10T03:29:48;45.57;;;18.47;;
21876;SDS011;11103;43.788;23.710;2022-12-10T03:32:17;51.13;;;20.67;;
21876;SDS011;11103;43.788;23.710;2022-12-10T03:34:45;54.80;;;19.17;;
21876;SDS011;11103;43.788;23.710;2022-12-10T03:37:12;48.33;;;19.23;;
21876;SDS011;11103;43.788;23.710;2022-12-10T03:39:38;47.63;;;18.00;;
21876;SDS011;11103;43.788;23.710;2022-12-10T03:42:05;55.43;;;18.33;;
21876;SDS011;11103;43.788;23.710;2022-12-10T03:44:35;52.30;;;19.73;;
21876;SDS011;11103;43.788;23.710;2022-12-10T03:47:02;50.80;;;18.60;;
21876;SDS011;11103;43.788;23.710;2022-12-10T03:49:29;48.90;;;18.37;;
21876;SDS011;11103;43.788;23.710;2022-12-10T03:51:54;53.73;;;19.87;;
21876;SDS011;11103;43.788;23.710;2022-12-10T03:54:20;55.73;;;19.93;;
21876;SDS011;11103;43.788;23.710;2022-12-10T03:56:45;54.83;;;21.67;;
21876;SDS011;11103;43.788;23.710;2022-12-10T03:59:11;88.87;;;38.43;;
21876;SDS011;11103;43.788;23.710;2022-12-10T04:01:36;99.10;;;39.27;;
21876;SDS011;11103;43.788;23.710;2022-12-10T04:04:04;77.97;;;31.73;;
21876;SDS011;11103;43.788;23.710;2022-12-10T04:06:31;58.47;;;24.07;;
21876;SDS011;11103;43.788;23.710;2022-12-10T04:08:56;104.97;;;48.60;;
21876;SDS011;11103;43.788;23.710;2022-12-10T04:11:22;77.50;;;32.90;;
21876;SDS011;11103;43.788;23.710;2022-12-10T04:13:48;56.73;;;24.13;;
21876;SDS011;11103;43.788;23.710;2022-12-10T04:16:32;53.20;;;23.63;;
21876;SDS011;11103;43.788;23.710;2022-12-10T04:19:06;45.40;;;21.37;;
21876;SDS011;11103;43.788;23.710;2022-12-10T04:21:33;46.53;;;19.83;;
21876;SDS011;11103;43.788;23.710;2022-12-10T04:24:20;55.50;;;16.73;;
21876;SDS011;11103;43.788;23.710;2022-12-10T04:27:32;45.67;;;17.77;;
21876;SDS011;11103;43.788;23.710;2022-12-10T04:29:57;40.03;;;15.77;;
21876;SDS011;11103;43.788;23.710;2022-12-10T04:32:24;41.00;;;15.77;;
21876;SDS011;11103;43.788;23.710;2022-12-10T04:34:51;41.93;;;17.40;;
21876;SDS011;11103;43.788;23.710;2022-12-10T04:37:16;42.20;;;17.07;;
21876;SDS011;11103;43.788;23.710;2022-12-10T04:39:43;42.17;;;16.93;;
21876;SDS011;11103;43.788;23.710;2022-12-10T04:42:08;53.67;;;20.40;;
21876;SDS011;11103;43.788;23.710;2022-12-10T04:44:34;59.73;;;18.17;;
21876;SDS011;11103;43.788;23.710;2022-12-10T04:47:00;37.20;;;16.80;;
21876;SDS011;11103;43.788;23.710;2022-12-10T04:49:25;45.70;;;17.13;;
21876;SDS011;11103;43.788;23.710;2022-12-10T04:51:51;38.30;;;16.07;;
21876;SDS011;11103;43.788;23.710;2022-12-10T04:54:18;37.77;;;15.47;;
21876;SDS011;11103;43.788;23.710;2022-12-10T04:56:43;38.97;;;17.17;;
21876;SDS011;11103;43.788;23.710;2022-12-10T04:59:10;57.40;;;21.70;;
21876;SDS011;11103;43.788;23.710;2022-12-10T05:01:36;46.47;;;19.50;;
21876;SDS011;11103;43.788;23.710;2022-12-10T05:04:03;39.77;;;17.50;;
21876;SDS011;11103;43.788;23.710;2022-12-10T05:06:30;51.17;;;17.13;;
21876;SDS011;11103;43.788;23.710;2022-12-10T05:08:56;42.47;;;17.90;;
21876;SDS011;11103;43.788;23.710;2022-12-10T05:11:23;51.50;;;17.23;;
21876;SDS011;11103;43.788;23.710;2022-12-10T05:13:50;35.90;;;16.70;;
21876;SDS011;11103;43.788;23.710;2022-12-10T05:16:17;41.80;;;17.77;;
21876;SDS011;11103;43.788;23.710;2022-12-10T05:18:44;38.23;;;15.73;;
21876;SDS011;11103;43.788;23.710;2022-12-10T05:21:10;40.83;;;16.43;;
21876;SDS011;11103;43.788;23.710;2022-12-10T05:23:38;41.17;;;16.90;;
21876;SDS011;11103;43.788;23.710;2022-12-10T05:28:37;42.93;;;16.17;;
21876;SDS011;11103;43.788;23.710;2022-12-10T05:31:05;67.70;;;18.53;;
21876;SDS011;11103;43.788;23.710;2022-12-10T05:33:35;48.90;;;17.27;;
21876;SDS011;11103;43.788;23.710;2022-12-10T05:36:01;52.57;;;17.57;;
21876;SDS011;11103;43.788;23.710;2022-12-10T05:38:29;55.67;;;17.20;;
21876;SDS011;11103;43.788;23.710;2022-12-10T05:41:11;56.80;;;19.20;;
21876;SDS011;11103;43.788;23.710;2022-12-10T05:43:38;54.80;;;18.93;;
21876;SDS011;11103;43.788;23.710;2022-12-10T05:46:05;64.37;;;19.60;;
21876;SDS011;11103;43.788;23.710;2022-12-10T05:48:32;56.40;;;18.07;;
21876;SDS011;11103;43.788;23.710;2022-12-10T05:51:02;57.20;;;20.53;;
21876;SDS011;11103;43.788;23.710;2022-12-10T05:53:47;62.37;;;19.53;;
21876;SDS011;11103;43.788;23.710;2022-12-10T05:56:13;71.33;;;19.73;;
21876;SDS011;11103;43.788;23.710;2022-12-10T05:58:41;48.90;;;18.83;;
21876;SDS011;11103;43.788;23.710;2022-12-10T06:01:09;51.80;;;19.53;;
21876;SDS011;11103;43.788;23.710;2022-12-10T06:03:37;48.77;;;18.13;;
21876;SDS011;11103;43.788;23.710;2022-12-10T06:06:03;52.07;;;18.20;;
21876;SDS011;11103;43.788;23.710;2022-12-10T06:08:29;48.33;;;18.70;;
21876;SDS011;11103;43.788;23.710;2022-12-10T06:10:54;40.43;;;16.83;;
21876;SDS011;11103;43.788;23.710;2022-12-10T06:13:22;49.40;;;18.17;;
21876;SDS011;11103;43.788;23.710;2022-12-10T06:15:48;52.90;;;19.70;;
21876;SDS011;11103;43.788;23.710;2022-12-10T06:18:13;50.13;;;20.87;;
21876;SDS011;11103;43.788;23.710;2022-12-10T06:20:39;43.70;;;18.83;;
21876;SDS011;11103;43.788;23.710;2022-12-10T06:23:05;62.43;;;19.23;;
21876;SDS011;11103;43.788;23.710;2022-12-10T06:25:30;55.40;;;18.50;;
21876;SDS011;11103;43.788;23.710;2022-12-10T06:27:56;39.17;;;18.17;;
21876;SDS011;11103;43.788;23.710;2022-12-10T06:30:22;45.27;;;18.80;;
21876;SDS011;11103;43.788;23.710;2022-12-10T06:32:47;48.43;;;19.27;;
21876;SDS011;11103;43.788;23.710;2022-12-10T06:35:13;50.13;;;18.07;;
21876;SDS011;11103;43.788;23.710;2022-12-10T06:37:38;41.47;;;17.83;;
21876;SDS011;11103;43.788;23.710;2022-12-10T06:40:04;43.37;;;16.87;;
21876;SDS011;11103;43.788;23.710;2022-12-10T06:42:30;44.60;;;16.67;;
21876;SDS011;11103;43.788;23.710;2022-12-10T06:44:55;39.23;;;17.20;;
21876;SDS011;11103;43.788;23.710;2022-12-10T06:47:21;49.80;;;18.30;;
21876;SDS011;11103;43.788;23.710;2022-12-10T06:49:46;42.40;;;17.57;;
21876;SDS011;11103;43.788;23.710;2022-12-10T06:52:12;39.70;;;16.60;;
21876;SDS011;11103;43.788;23.710;2022-12-10T06:54:38;40.20;;;17.50;;
21876;SDS011;11103;43.788;23.710;2022-12-10T06:57:03;58.93;;;18.17;;
21876;SDS011;11103;43.788;23.710;2022-12-10T06:59:29;51.70;;;17.93;;
21876;SDS011;11103;43.788;23.710;2022-12-10T07:01:54;41.47;;;19.23;;
21876;SDS011;11103;43.788;23.710;2022-12-10T07:04:20;48.13;;;18.93;;
21876;SDS011;11103;43.788;23.710;2022-12-10T07:06:45;40.57;;;17.43;;
21876;SDS011;11103;43.788;23.710;2022-12-10T07:09:11;40.27;;;17.67;;
21876;SDS011;11103;43.788;23.710;2022-12-10T07:11:36;40.70;;;17.77;;
21876;SDS011;11103;43.788;23.710;2022-12-10T07:14:02;39.17;;;17.83;;
21876;SDS011;11103;43.788;23.710;2022-12-10T07:16:28;41.73;;;16.90;;
21876;SDS011;11103;43.788;23.710;2022-12-10T07:18:56;38.83;;;16.40;;
21876;SDS011;11103;43.788;23.710;2022-12-10T07:21:24;40.10;;;17.43;;
21876;SDS011;11103;43.788;23.710;2022-12-10T07:23:52;36.60;;;16.37;;
21876;SDS011;11103;43.788;23.710;2022-12-10T07:26:20;41.23;;;18.57;;
21876;SDS011;11103;43.788;23.710;2022-12-10T07:40:39;36.33;;;18.50;;
21876;SDS011;11103;43.788;23.710;2022-12-10T07:43:04;37.97;;;17.43;;
21876;SDS011;11103;43.788;23.710;2022-12-10T07:45:30;35.70;;;17.20;;
21876;SDS011;11103;43.788;23.710;2022-12-10T07:47:55;38.53;;;17.60;;
21876;SDS011;11103;43.788;23.710;2022-12-10T07:50:21;39.37;;;17.70;;
21876;SDS011;11103;43.788;23.710;2022-12-10T07:52:46;45.97;;;21.67;;
21876;SDS011;11103;43.788;23.710;2022-12-10T07:55:12;46.27;;;20.07;;
21876;SDS011;11103;43.788;23.710;2022-12-10T07:57:37;50.27;;;20.20;;
21876;SDS011;11103;43.788;23.710;2022-12-10T08:00:03;53.40;;;20.57;;
21876;SDS011;11103;43.788;23.710;2022-12-10T08:02:29;45.03;;;19.40;;
21876;SDS011;11103;43.788;23.710;2022-12-10T08:04:54;42.10;;;20.43;;
21876;SDS011;11103;43.788;23.710;2022-12-10T08:07:19;39.87;;;19.07;;
21876;SDS011;11103;43.788;23.710;2022-12-10T08:09:45;38.30;;;18.47;;
21876;SDS011;11103;43.788;23.710;2022-12-10T08:12:10;47.10;;;18.67;;
21876;SDS011;11103;43.788;23.710;2022-12-10T08:14:36;45.73;;;16.80;;
21876;SDS011;11103;43.788;23.710;2022-12-10T08:17:01;42.03;;;18.77;;
21876;SDS011;11103;43.788;23.710;2022-12-10T08:19:26;52.17;;;18.80;;
21876;SDS011;11103;43.788;23.710;2022-12-10T08:21:52;44.33;;;18.40;;
21876;SDS011;11103;43.788;23.710;2022-12-10T08:24:17;50.07;;;19.47;;
21876;SDS011;11103;43.788;23.710;2022-12-10T08:26:43;47.33;;;19.23;;
21876;SDS011;11103;43.788;23.710;2022-12-10T08:29:08;45.60;;;19.67;;
21876;SDS011;11103;43.788;23.710;2022-12-10T08:31:33;44.17;;;19.63;;
21876;SDS011;11103;43.788;23.710;2022-12-10T08:33:59;40.87;;;18.97;;
21876;SDS011;11103;43.788;23.710;2022-12-10T08:36:24;41.80;;;18.73;;
21876;SDS011;11103;43.788;23.710;2022-12-10T08:38:50;41.93;;;18.30;;
21876;SDS011;11103;43.788;23.710;2022-12-10T08:41:16;40.33;;;17.80;;
21876;SDS011;11103;43.788;23.710;2022-12-10T08:43:44;39.27;;;17.53;;
21876;SDS011;11103;43.788;23.710;2022-12-10T08:46:11;38.10;;;17.70;;
21876;SDS011;11103;43.788;23.710;2022-12-10T08:48:37;36.27;;;15.97;;
21876;SDS011;11103;43.788;23.710;2022-12-10T08:51:04;31.93;;;15.10;;
21876;SDS011;11103;43.788;23.710;2022-12-10T08:53:31;38.77;;;18.70;;
21876;SDS011;11103;43.788;23.710;2022-12-10T08:55:57;32.50;;;16.33;;
21876;SDS011;11103;43.788;23.710;2022-12-10T08:58:22;30.57;;;15.33;;
21876;SDS011;11103;43.788;23.710;2022-12-10T09:00:48;26.43;;;14.23;;
21876;SDS011;11103;43.788;23.710;2022-12-10T09:03:14;32.53;;;17.47;;
21876;SDS011;11103;43.788;23.710;2022-12-10T09:05:40;30.77;;;16.27;;
21876;SDS011;11103;43.788;23.710;2022-12-10T09:08:06;29.00;;;15.70;;
21876;SDS011;11103;43.788;23.710;2022-12-10T09:10:32;30.17;;;15.10;;
21876;SDS011;11103;43.788;23.710;2022-12-10T09:12:57;31.50;;;15.77;;
21876;SDS011;11103;43.788;23.710;2022-12-10T09:15:23;32.57;;;15.07;;
21876;SDS011;11103;43.788;23.710;2022-12-10T09:17:48;29.53;;;16.37;;
21876;SDS011;11103;43.788;23.710;2022-12-10T09:20:13;59.23;;;25.97;;
21876;SDS011;11103;43.788;23.710;2022-12-10T09:22:39;33.47;;;17.50;;
21876;SDS011;11103;43.788;23.710;2022-12-10T09:25:11;27.23;;;15.03;;
21876;SDS011;11103;43.788;23.710;2022-12-10T09:27:40;29.47;;;16.97;;
21876;SDS011;11103;43.788;23.710;2022-12-10T09:30:05;24.40;;;13.60;;
21876;SDS011;11103;43.788;23.710;2022-12-10T09:32:31;25.67;;;14.80;;
21876;SDS011;11103;43.788;23.710;2022-12-10T09:34:57;26.80;;;15.27;;
21876;SDS011;11103;43.788;23.710;2022-12-10T09:37:22;22.93;;;12.93;;
21876;SDS011;11103;43.788;23.710;2022-12-10T09:39:48;25.77;;;13.77;;
21876;SDS011;11103;43.788;23.710;2022-12-10T09:47:26;23.63;;;14.63;;
21876;SDS011;11103;43.788;23.710;2022-12-10T09:52:59;23.60;;;14.90;;
21876;SDS011;11103;43.788;23.710;2022-12-10T09:55:36;24.90;;;14.60;;
21876;SDS011;11103;43.788;23.710;2022-12-10T09:58:05;22.90;;;13.77;;
21876;SDS011;11103;43.788;23.710;2022-12-10T10:00:39;22.67;;;14.13;;
21876;SDS011;11103;43.788;23.710;2022-12-10T10:03:09;22.87;;;14.97;;
21876;SDS011;11103;43.788;23.710;2022-12-10T10:05:39;25.47;;;16.30;;
21876;SDS011;11103;43.788;23.710;2022-12-10T10:08:53;25.33;;;13.63;;
21876;SDS011;11103;43.788;23.710;2022-12-10T10:11:02;25.50;;;14.47;;
21876;SDS011;11103;43.788;23.710;2022-12-10T10:13:39;20.37;;;12.53;;
21876;SDS011;11103;43.788;23.710;2022-12-10T10:19:00;25.03;;;14.53;;
21876;SDS011;11103;43.788;23.710;2022-12-10T10:24:09;24.57;;;14.30;;
21876;SDS011;11103;43.788;23.710;2022-12-10T10:26:38;23.27;;;13.60;;
21876;SDS011;11103;43.788;23.710;2022-12-10T10:29:05;24.00;;;15.30;;
21876;SDS011;11103;43.788;23.710;2022-12-10T10:31:33;26.73;;;14.77;;
21876;SDS011;11103;43.788;23.710;2022-12-10T10:34:05;23.27;;;14.57;;
21876;SDS011;11103;43.788;23.710;2022-12-10T10:36:38;23.23;;;13.83;;
21876;SDS011;11103;43.788;23.710;2022-12-10T10:39:11;27.40;;;15.30;;
21876;SDS011;11103;43.788;23.710;2022-12-10T10:41:44;26.07;;;14.77;;
21876;SDS011;11103;43.788;23.710;2022-12-10T10:44:16;23.47;;;13.67;;
21876;SDS011;11103;43.788;23.710;2022-12-10T10:46:45;25.33;;;15.57;;
21876;SDS011;11103;43.788;23.710;2022-12-10T10:49:19;26.63;;;15.30;;
21876;SDS011;11103;43.788;23.710;2022-12-10T10:51:52;27.17;;;15.20;;
21876;SDS011;11103;43.788;23.710;2022-12-10T10:54:33;24.60;;;15.10;;
21876;SDS011;11103;43.788;23.710;2022-12-10T11:00:07;25.03;;;14.00;;
21876;SDS011;11103;43.788;23.710;2022-12-10T11:02:44;24.93;;;14.93;;
21876;SDS011;11103;43.788;23.710;2022-12-10T11:05:17;28.63;;;16.47;;
21876;SDS011;11103;43.788;23.710;2022-12-10T11:07:42;29.30;;;15.53;;
21876;SDS011;11103;43.788;23.710;2022-12-10T11:10:19;26.83;;;16.00;;
21876;SDS011;11103;43.788;23.710;2022-12-10T11:12:56;24.63;;;14.67;;
21876;SDS011;11103;43.788;23.710;2022-12-10T11:15:37;23.93;;;14.37;;
21876;SDS011;11103;43.788;23.710;2022-12-10T11:18:22;23.90;;;14.57;;
21876;SDS011;11103;43.788;23.710;2022-12-10T11:23:22;29.67;;;17.67;;
21876;SDS011;11103;43.788;23.710;2022-12-10T11:34:08;33.27;;;19.40;;
21876;SDS011;11103;43.788;23.710;2022-12-10T11:36:46;29.97;;;17.50;;
21876;SDS011;11103;43.788;23.710;2022-12-10T11:50:13;27.13;;;16.77;;
21876;SDS011;11103;43.788;23.710;2022-12-10T11:52:49;29.40;;;17.40;;
21876;SDS011;11103;43.788;23.710;2022-12-10T12:14:08;31.47;;;18.37;;
21876;SDS011;11103;43.788;23.710;2022-12-10T12:16:44;29.83;;;17.23;;
21876;SDS011;11103;43.788;23.710;2022-12-10T12:19:16;36.93;;;18.33;;
21876;SDS011;11103;43.788;23.710;2022-12-10T12:21:49;29.17;;;17.50;;
21876;SDS011;11103;43.788;23.710;2022-12-10T12:24:17;30.20;;;18.33;;
21876;SDS011;11103;43.788;23.710;2022-12-10T12:26:49;28.40;;;17.40;;
21876;SDS011;11103;43.788;23.710;2022-12-10T12:29:21;34.83;;;19.67;;
21876;SDS011;11103;43.788;23.710;2022-12-10T12:32:11;31.83;;;19.30;;
21876;SDS011;11103;43.788;23.710;2022-12-10T12:34:59;33.03;;;18.70;;
21876;SDS011;11103;43.788;23.710;2022-12-10T12:37:39;36.53;;;20.87;;
21876;SDS011;11103;43.788;23.710;2022-12-10T12:40:12;33.77;;;19.33;;
21876;SDS011;11103;43.788;23.710;2022-12-10T12:42:59;32.63;;;19.10;;
21876;SDS011;11103;43.788;23.710;2022-12-10T12:45:39;33.73;;;18.90;;
21876;SDS011;11103;43.788;23.710;2022-12-10T12:50:57;33.07;;;18.67;;
21876;SDS011;11103;43.788;23.710;2022-12-10T12:53:30;36.57;;;21.07;;
21876;SDS011;11103;43.788;23.710;2022-12-10T12:56:01;30.80;;;17.40;;
21876;SDS011;11103;43.788;23.710;2022-12-10T13:01:08;33.37;;;18.90;;
21876;SDS011;11103;43.788;23.710;2022-12-10T13:03:40;36.23;;;21.13;;
21876;SDS011;11103;43.788;23.710;2022-12-10T13:06:13;32.07;;;18.80;;
21876;SDS011;11103;43.788;23.710;2022-12-10T13:08:47;31.73;;;18.40;;
21876;SDS011;11103;43.788;23.710;2022-12-10T13:11:34;33.57;;;18.60;;
21876;SDS011;11103;43.788;23.710;2022-12-10T13:14:53;32.33;;;18.53;;
21876;SDS011;11103;43.788;23.710;2022-12-10T13:17:02;34.70;;;18.80;;
21876;SDS011;11103;43.788;23.710;2022-12-10T13:19:33;37.53;;;19.33;;
21876;SDS011;11103;43.788;23.710;2022-12-10T13:22:05;37.07;;;20.27;;
21876;SDS011;11103;43.788;23.710;2022-12-10T13:32:18;43.63;;;23.17;;
21876;SDS011;11103;43.788;23.710;2022-12-10T13:37:34;44.63;;;23.60;;
21876;SDS011;11103;43.788;23.710;2022-12-10T13:42:32;40.57;;;22.50;;
21876;SDS011;11103;43.788;23.710;2022-12-10T13:47:49;40.80;;;22.33;;
21876;SDS011;11103;43.788;23.710;2022-12-10T13:56:25;45.93;;;24.07;;
21876;SDS011;11103;43.788;23.710;2022-12-10T14:01:40;48.63;;;24.47;;
21876;SDS011;11103;43.788;23.710;2022-12-10T14:04:26;48.33;;;26.77;;
21876;SDS011;11103;43.788;23.710;2022-12-10T14:06:56;45.60;;;25.20;;
21876;SDS011;11103;43.788;23.710;2022-12-10T14:09:43;46.97;;;25.10;;
21876;SDS011;11103;43.788;23.710;2022-12-10T14:12:14;48.87;;;25.87;;
21876;SDS011;11103;43.788;23.710;2022-12-10T14:14:45;51.00;;;28.03;;
21876;SDS011;11103;43.788;23.710;2022-12-10T14:17:14;51.43;;;29.27;;
21876;SDS011;11103;43.788;23.710;2022-12-10T14:19:43;52.50;;;27.83;;
21876;SDS011;11103;43.788;23.710;2022-12-10T14:22:23;50.47;;;26.70;;
21876;SDS011;11103;43.788;23.710;2022-12-10T14:24:59;53.80;;;27.93;;
21876;SDS011;11103;43.788;23.710;2022-12-10T14:27:26;52.13;;;27.90;;
21876;SDS011;11103;43.788;23.710;2022-12-10T14:30:38;72.90;;;36.47;;
21876;SDS011;11103;43.788;23.710;2022-12-10T14:32:43;73.20;;;37.30;;
21876;SDS011;11103;43.788;23.710;2022-12-10T14:35:13;80.27;;;40.57;;
21876;SDS011;11103;43.788;23.710;2022-12-10T14:37:48;70.80;;;34.90;;
21876;SDS011;11103;43.788;23.710;2022-12-10T14:40:27;60.07;;;32.77;;
21876;SDS011;11103;43.788;23.710;2022-12-10T14:42:57;60.83;;;33.23;;
21876;SDS011;11103;43.788;23.710;2022-12-10T14:45:29;68.10;;;33.90;;
21876;SDS011;11103;43.788;23.710;2022-12-10T14:48:03;77.10;;;37.37;;
21876;SDS011;11103;43.788;23.710;2022-12-10T14:50:32;71.47;;;38.23;;
21876;SDS011;11103;43.788;23.710;2022-12-10T14:52:58;73.53;;;34.77;;
21876;SDS011;11103;43.788;23.710;2022-12-10T14:55:25;81.47;;;42.00;;
21876;SDS011;11103;43.788;23.710;2022-12-10T14:57:56;89.10;;;46.37;;
21876;SDS011;11103;43.788;23.710;2022-12-10T15:00:26;102.13;;;45.57;;
21876;SDS011;11103;43.788;23.710;2022-12-10T15:02:56;93.60;;;45.80;;
21876;SDS011;11103;43.788;23.710;2022-12-10T15:05:28;80.90;;;40.83;;
21876;SDS011;11103;43.788;23.710;2022-12-10T15:08:00;102.33;;;43.87;;
21876;SDS011;11103;43.788;23.710;2022-12-10T15:10:36;85.20;;;38.83;;
21876;SDS011;11103;43.788;23.710;2022-12-10T15:13:07;91.53;;;42.93;;
21876;SDS011;11103;43.788;23.710;2022-12-10T15:15:42;93.63;;;43.37;;
21876;SDS011;11103;43.788;23.710;2022-12-10T15:25:58;76.70;;;36.87;;
21876;SDS011;11103;43.788;23.710;2022-12-10T15:28:27;96.00;;;48.20;;
21876;SDS011;11103;43.788;23.710;2022-12-10T15:30:57;91.77;;;42.47;;
21876;SDS011;11103;43.788;23.710;2022-12-10T15:38:56;95.40;;;44.63;;
21876;SDS011;11103;43.788;23.710;2022-12-10T15:41:23;100.83;;;45.60;;
21876;SDS011;11103;43.788;23.710;2022-12-10T15:49:24;74.77;;;38.83;;
21876;SDS011;11103;43.788;23.710;2022-12-10T15:51:50;69.00;;;37.07;;
21876;SDS011;11103;43.788;23.710;2022-12-10T15:54:24;68.60;;;36.47;;
21876;SDS011;11103;43.788;23.710;2022-12-10T15:56:55;64.10;;;33.67;;
21876;SDS011;11103;43.788;23.710;2022-12-10T15:59:21;63.30;;;35.00;;
21876;SDS011;11103;43.788;23.710;2022-12-10T16:01:46;79.63;;;40.70;;
21876;SDS011;11103;43.788;23.710;2022-12-10T16:04:12;74.80;;;38.77;;
21876;SDS011;11103;43.788;23.710;2022-12-10T16:06:38;60.00;;;31.97;;
21876;SDS011;11103;43.788;23.710;2022-12-10T16:09:04;67.47;;;32.70;;
21876;SDS011;11103;43.788;23.710;2022-12-10T16:11:30;60.67;;;31.87;;
21876;SDS011;11103;43.788;23.710;2022-12-10T16:13:56;59.60;;;32.43;;
21876;SDS011;11103;43.788;23.710;2022-12-10T16:16:23;66.07;;;33.93;;
21876;SDS011;11103;43.788;23.710;2022-12-10T16:18:49;62.33;;;33.97;;
21876;SDS011;11103;43.788;23.710;2022-12-10T16:21:15;61.17;;;31.77;;
21876;SDS011;11103;43.788;23.710;2022-12-10T16:23:40;104.43;;;49.33;;
21876;SDS011;11103;43.788;23.710;2022-12-10T16:26:16;80.40;;;41.07;;
21876;SDS011;11103;43.788;23.710;2022-12-10T16:28:47;69.17;;;36.47;;
21876;SDS011;11103;43.788;23.710;2022-12-10T16:31:15;71.57;;;35.07;;
21876;SDS011;11103;43.788;23.710;2022-12-10T16:33:42;67.57;;;35.73;;
21876;SDS011;11103;43.788;23.710;2022-12-10T16:36:07;66.20;;;33.27;;
21876;SDS011;11103;43.788;23.710;2022-12-10T16:38:34;67.57;;;31.90;;
21876;SDS011;11103;43.788;23.710;2022-12-10T16:40:59;58.37;;;32.53;;
21876;SDS011;11103;43.788;23.710;2022-12-10T16:43:27;63.57;;;31.83;;